Time;durP1;ratioP1;P1;durP2;ratioP2;P2;SDS_P1;SDS_P2;PMS_P1;PMS_P2;Temp;Humidity;BMP_temperature;BMP_pressure;BME280_temperature;BME280_humidity;BME280_pressure;Samples;Min_cycle;Max_cycle;Signal;HPM_P1;HPM_P2
2022/04/20 10:38:09;;;;;;;5.65;1.40;;;18.80;54.40;;;;;;5078019;28;21201;-67
2022/04/20 10:41:05;;;;;;;11.02;2.20;;;18.70;54.60;;;;;;5058660;28;20040;-66
2022/04/20 10:43:34;;;;;;;4.32;1.83;;;18.70;55.10;;;;;;5054767;28;20032;-67
2022/04/20 10:46:17;;;;;;;7.32;1.95;;;18.70;53.50;;;;;;5068015;28;20048;-67
2022/04/20 10:49:17;;;;;;;5.93;2.15;;;18.70;52.70;;;;;;5082326;28;20028;-67
2022/04/20 10:51:46;;;;;;;5.95;1.80;;;18.60;52.60;;;;;;5037515;28;20044;-67
2022/04/20 10:54:26;;;;;;;5.03;1.60;;;18.50;52.90;;;;;;5071766;28;20384;-67
2022/04/20 10:57:02;;;;;;;3.20;1.20;;;18.60;53.90;;;;;;5090512;28;20040;-67
2022/04/20 10:59:30;;;;;;;2.42;1.30;;;18.60;52.60;;;;;;5090213;28;20039;-67
2022/04/20 11:02:02;;;;;;;5.68;1.60;;;18.60;53.00;;;;;;5067341;28;20047;-67
2022/04/20 11:04:33;;;;;;;1.90;1.40;;;18.50;52.80;;;;;;5069799;28;20024;-68
2022/04/20 11:07:01;;;;;;;1.80;1.10;;;18.50;52.70;;;;;;5043519;28;20386;-68
2022/04/20 11:09:47;;;;;;;1.70;1.00;;;18.50;52.60;;;;;;5091742;28;20559;-68
2022/04/20 11:21:09;;;;;;;2.53;1.10;;;18.50;52.10;;;;;;5080556;28;20448;-68
2022/04/20 11:24:03;;;;;;;2.53;1.42;;;18.40;51.80;;;;;;5085335;28;20417;-68
2022/04/20 11:26:48;;;;;;;7.80;1.60;;;18.30;53.50;;;;;;5102011;28;20128;-68
2022/04/20 11:29:22;;;;;;;6.35;1.35;;;18.30;53.10;;;;;;5093753;28;20028;-68
2022/04/20 11:31:50;;;;;;;3.47;1.08;;;18.30;54.20;;;;;;5103061;28;20055;-68
2022/04/20 11:34:20;;;;;;;4.45;1.20;;;18.30;55.90;;;;;;5093380;28;20071;-68
2022/04/20 11:36:54;;;;;;;5.47;1.17;;;18.30;54.40;;;;;;5100698;28;20347;-67
2022/04/20 21:40:56;;;;;;;5.40;1.20;;;15.70;73.90;;;;;;6186355;22;1819787;-68
2022/04/20 21:43:27;;;;;;;5.38;1.33;;;15.80;73.90;;;;;;6255566;22;20334;-68
2022/04/20 21:45:56;;;;;;;3.67;1.30;;;15.80;73.70;;;;;;6273806;22;20038;-68
2022/04/20 21:48:25;;;;;;;1.75;1.15;;;15.80;73.90;;;;;;6273788;22;20007;-68
2022/04/20 21:50:52;;;;;;;2.30;1.30;;;15.90;73.10;;;;;;6246792;22;20415;-67
2022/04/20 21:53:20;;;;;;;4.00;1.50;;;15.90;73.50;;;;;;6273633;22;19995;-67
2022/04/20 21:55:51;;;;;;;2.35;1.30;;;16.00;73.40;;;;;;6273807;22;20069;-68
2022/04/20 21:58:19;;;;;;;3.60;1.30;;;16.00;73.60;;;;;;6272251;22;20055;-68
2022/04/20 22:00:50;;;;;;;2.42;1.20;;;16.10;73.90;;;;;;6246059;22;20008;-69
2022/04/20 22:09:22;;;;;;;2.08;1.20;;;16.20;74.50;;;;;;6272399;22;20394;-68
2022/04/20 22:11:56;;;;;;;1.17;1.05;;;16.30;74.20;;;;;;6273510;22;20088;-69
2022/04/20 22:14:27;;;;;;;1.30;0.82;;;16.30;73.90;;;;;;6273406;22;20420;-69
2022/04/20 22:16:55;;;;;;;2.08;1.17;;;16.30;73.70;;;;;;6273272;22;20323;-68
2022/04/20 22:19:23;;;;;;;1.95;1.20;;;16.30;74.00;;;;;;6272884;22;20023;-68
2022/04/20 22:21:52;;;;;;;5.43;1.13;;;16.40;74.20;;;;;;6273488;22;19992;-69
2022/04/20 22:24:19;;;;;;;2.33;1.08;;;16.40;74.30;;;;;;6246520;22;20453;-68
2022/04/20 22:26:50;;;;;;;4.35;1.20;;;16.50;74.40;;;;;;6273357;22;20078;-68
2022/04/20 22:29:17;;;;;;;5.00;1.17;;;16.60;74.20;;;;;;6272250;22;20038;-69
2022/04/20 22:31:47;;;;;;;1.40;1.08;;;16.60;73.70;;;;;;6274517;22;20399;-69
2022/04/20 22:34:15;;;;;;;3.55;1.10;;;16.60;73.70;;;;;;6249329;22;20018;-68
2022/04/20 22:36:42;;;;;;;5.32;1.17;;;16.60;73.40;;;;;;6276252;22;20439;-68
2022/04/20 22:39:11;;;;;;;1.63;1.02;;;16.70;73.60;;;;;;6248858;22;20034;-68
2022/04/20 22:59:11;;;;;;;2.08;0.75;;;16.90;72.60;;;;;;6298080;22;20049;-67
2022/04/20 23:01:39;;;;;;;3.85;1.20;;;17.00;72.60;;;;;;6306514;22;20031;-67
2022/04/20 23:04:06;;;;;;;1.98;1.10;;;17.00;72.80;;;;;;6278785;22;20007;-67
2022/04/20 23:06:34;;;;;;;1.50;0.93;;;17.00;72.60;;;;;;6305693;22;20065;-67
2022/04/20 23:09:01;;;;;;;1.75;1.00;;;17.10;71.80;;;;;;6305847;22;20015;-67
2022/04/20 23:11:28;;;;;;;4.72;1.25;;;17.10;72.10;;;;;;6305895;22;20003;-67
2022/04/20 23:13:55;;;;;;;3.17;1.23;;;17.20;72.20;;;;;;6306321;22;20364;-67
2022/04/20 23:16:22;;;;;;;1.95;1.00;;;17.20;71.70;;;;;;6306091;22;20052;-67
2022/04/20 23:18:49;;;;;;;1.98;0.85;;;17.20;71.50;;;;;;6306209;22;20044;-67
2022/04/20 23:21:17;;;;;;;2.80;0.73;;;17.20;71.50;;;;;;6306011;22;20010;-67
2022/04/20 23:23:44;;;;;;;2.13;0.90;;;17.30;71.00;;;;;;6305941;22;20079;-67
2022/04/20 23:28:56;;;;;;;1.98;0.90;;;17.40;70.50;;;;;;6304621;22;20030;-67
2022/04/20 23:31:23;;;;;;;2.08;1.00;;;17.40;70.40;;;;;;6305638;22;20003;-67
2022/04/20 23:33:50;;;;;;;3.25;1.10;;;17.50;69.90;;;;;;6305956;22;20003;-68
2022/04/20 23:36:18;;;;;;;1.67;0.90;;;17.60;70.20;;;;;;6306030;22;20006;-67
2022/04/20 23:38:45;;;;;;;2.13;0.90;;;17.60;69.90;;;;;;6305908;22;20030;-67
2022/04/20 23:41:13;;;;;;;4.15;1.23;;;17.70;69.80;;;;;;6305109;22;20079;-67
2022/04/20 23:43:40;;;;;;;0.65;0.63;;;17.70;69.80;;;;;;6305442;22;20091;-67
2022/04/20 23:46:07;;;;;;;1.42;0.88;;;17.70;69.60;;;;;;6305756;22;20438;-67
2022/04/20 23:48:34;;;;;;;4.13;1.15;;;17.80;69.50;;;;;;6305801;22;20008;-67
2022/04/20 23:51:02;;;;;;;4.63;1.30;;;17.80;70.20;;;;;;6305624;22;20062;-67
2022/04/20 23:53:29;;;;;;;1.65;0.90;;;17.80;70.70;;;;;;6306233;22;19996;-67
2022/04/20 23:55:56;;;;;;;2.25;1.10;;;17.90;69.90;;;;;;6304197;22;20045;-67
2022/04/20 23:58:23;;;;;;;2.03;1.00;;;18.00;70.60;;;;;;6305537;22;20072;-67
